sensor_id;sensor_type;location;lat;lon;timestamp;P1;durP1;ratioP1;P2;durP2;ratioP2
44536;SDS011;30245;51.966;6.292;2023-04-24T00:01:51;4.73;;;4.33;;
44536;SDS011;30245;51.966;6.292;2023-04-24T00:04:17;4.83;;;4.33;;
44536;SDS011;30245;51.966;6.292;2023-04-24T00:06:43;3.83;;;3.50;;
44536;SDS011;30245;51.966;6.292;2023-04-24T00:09:09;5.03;;;4.63;;
44536;SDS011;30245;51.966;6.292;2023-04-24T00:11:35;5.63;;;5.00;;
44536;SDS011;30245;51.966;6.292;2023-04-24T00:14:01;7.83;;;7.23;;
44536;SDS011;30245;51.966;6.292;2023-04-24T00:16:27;9.27;;;8.10;;
44536;SDS011;30245;51.966;6.292;2023-04-24T00:18:53;5.90;;;5.50;;
44536;SDS011;30245;51.966;6.292;2023-04-24T00:21:19;6.10;;;5.60;;
44536;SDS011;30245;51.966;6.292;2023-04-24T00:23:45;5.83;;;5.43;;
44536;SDS011;30245;51.966;6.292;2023-04-24T00:26:11;6.07;;;5.47;;
44536;SDS011;30245;51.966;6.292;2023-04-24T00:28:36;5.50;;;5.00;;
44536;SDS011;30245;51.966;6.292;2023-04-24T00:31:02;6.73;;;6.13;;
44536;SDS011;30245;51.966;6.292;2023-04-24T00:33:27;5.33;;;4.93;;
44536;SDS011;30245;51.966;6.292;2023-04-24T00:35:53;5.40;;;4.90;;
44536;SDS011;30245;51.966;6.292;2023-04-24T00:38:19;6.67;;;5.93;;
44536;SDS011;30245;51.966;6.292;2023-04-24T00:40:44;5.70;;;5.20;;
44536;SDS011;30245;51.966;6.292;2023-04-24T00:43:10;6.97;;;6.37;;
44536;SDS011;30245;51.966;6.292;2023-04-24T00:45:36;5.30;;;4.90;;
44536;SDS011;30245;51.966;6.292;2023-04-24T00:48:02;4.73;;;4.43;;
44536;SDS011;30245;51.966;6.292;2023-04-24T00:50:29;4.07;;;3.67;;
44536;SDS011;30245;51.966;6.292;2023-04-24T00:52:55;4.93;;;4.47;;
44536;SDS011;30245;51.966;6.292;2023-04-24T00:55:21;4.50;;;4.20;;
44536;SDS011;30245;51.966;6.292;2023-04-24T00:57:47;4.03;;;3.63;;
44536;SDS011;30245;51.966;6.292;2023-04-24T01:00:13;4.20;;;3.80;;
44536;SDS011;30245;51.966;6.292;2023-04-24T01:02:40;3.20;;;2.90;;
44536;SDS011;30245;51.966;6.292;2023-04-24T01:05:13;4.53;;;3.63;;
44536;SDS011;30245;51.966;6.292;2023-04-24T01:07:43;3.40;;;3.10;;
44536;SDS011;30245;51.966;6.292;2023-04-24T01:10:10;2.20;;;2.00;;
44536;SDS011;30245;51.966;6.292;2023-04-24T01:12:37;5.30;;;2.90;;
44536;SDS011;30245;51.966;6.292;2023-04-24T01:15:03;4.83;;;2.90;;
44536;SDS011;30245;51.966;6.292;2023-04-24T01:17:29;4.13;;;3.83;;
44536;SDS011;30245;51.966;6.292;2023-04-24T01:19:54;4.67;;;3.80;;
44536;SDS011;30245;51.966;6.292;2023-04-24T01:22:22;4.23;;;3.73;;
44536;SDS011;30245;51.966;6.292;2023-04-24T01:24:48;4.80;;;4.37;;
44536;SDS011;30245;51.966;6.292;2023-04-24T01:27:14;4.33;;;4.00;;
44536;SDS011;30245;51.966;6.292;2023-04-24T01:29:40;5.07;;;4.57;;
44536;SDS011;30245;51.966;6.292;2023-04-24T01:32:05;4.03;;;3.73;;
44536;SDS011;30245;51.966;6.292;2023-04-24T01:34:31;9.03;;;3.90;;
44536;SDS011;30245;51.966;6.292;2023-04-24T01:36:58;5.13;;;4.40;;
44536;SDS011;30245;51.966;6.292;2023-04-24T01:39:24;4.60;;;3.17;;
44536;SDS011;30245;51.966;6.292;2023-04-24T01:41:51;4.87;;;4.13;;
44536;SDS011;30245;51.966;6.292;2023-04-24T01:44:17;5.33;;;4.83;;
44536;SDS011;30245;51.966;6.292;2023-04-24T01:46:43;4.70;;;4.30;;
44536;SDS011;30245;51.966;6.292;2023-04-24T01:49:08;8.87;;;5.93;;
44536;SDS011;30245;51.966;6.292;2023-04-24T01:51:34;5.97;;;5.30;;
44536;SDS011;30245;51.966;6.292;2023-04-24T01:54:00;7.03;;;6.33;;
44536;SDS011;30245;51.966;6.292;2023-04-24T01:56:25;5.03;;;4.43;;
44536;SDS011;30245;51.966;6.292;2023-04-24T02:01:20;7.83;;;6.03;;
44536;SDS011;30245;51.966;6.292;2023-04-24T02:03:46;6.50;;;5.90;;
44536;SDS011;30245;51.966;6.292;2023-04-24T02:06:12;5.70;;;5.13;;
44536;SDS011;30245;51.966;6.292;2023-04-24T02:08:37;7.90;;;5.97;;
44536;SDS011;30245;51.966;6.292;2023-04-24T02:11:03;10.93;;;6.33;;
44536;SDS011;30245;51.966;6.292;2023-04-24T02:13:28;7.50;;;6.40;;
44536;SDS011;30245;51.966;6.292;2023-04-24T02:15:54;8.50;;;6.87;;
44536;SDS011;30245;51.966;6.292;2023-04-24T02:18:20;7.40;;;6.57;;
44536;SDS011;30245;51.966;6.292;2023-04-24T02:20:45;10.13;;;7.83;;
44536;SDS011;30245;51.966;6.292;2023-04-24T02:23:11;7.43;;;6.60;;
44536;SDS011;30245;51.966;6.292;2023-04-24T02:25:38;8.23;;;7.30;;
44536;SDS011;30245;51.966;6.292;2023-04-24T02:28:03;9.63;;;7.70;;
44536;SDS011;30245;51.966;6.292;2023-04-24T02:30:29;9.97;;;7.43;;
44536;SDS011;30245;51.966;6.292;2023-04-24T02:32:55;9.97;;;7.83;;
44536;SDS011;30245;51.966;6.292;2023-04-24T02:35:21;8.90;;;7.43;;
44536;SDS011;30245;51.966;6.292;2023-04-24T02:37:47;9.67;;;8.13;;
44536;SDS011;30245;51.966;6.292;2023-04-24T02:40:12;9.03;;;7.20;;
44536;SDS011;30245;51.966;6.292;2023-04-24T02:42:38;7.63;;;6.50;;
44536;SDS011;30245;51.966;6.292;2023-04-24T02:45:04;10.90;;;6.13;;
44536;SDS011;30245;51.966;6.292;2023-04-24T02:47:30;9.93;;;5.20;;
44536;SDS011;30245;51.966;6.292;2023-04-24T02:49:55;5.03;;;4.53;;
44536;SDS011;30245;51.966;6.292;2023-04-24T02:52:21;7.43;;;5.27;;
44536;SDS011;30245;51.966;6.292;2023-04-24T02:54:46;5.90;;;4.70;;
44536;SDS011;30245;51.966;6.292;2023-04-24T02:57:12;5.37;;;4.87;;
44536;SDS011;30245;51.966;6.292;2023-04-24T02:59:37;5.90;;;5.23;;
44536;SDS011;30245;51.966;6.292;2023-04-24T03:02:03;6.83;;;6.23;;
44536;SDS011;30245;51.966;6.292;2023-04-24T03:04:29;7.03;;;6.43;;
44536;SDS011;30245;51.966;6.292;2023-04-24T03:06:54;5.97;;;5.37;;
44536;SDS011;30245;51.966;6.292;2023-04-24T03:09:20;8.00;;;6.07;;
44536;SDS011;30245;51.966;6.292;2023-04-24T03:11:46;9.40;;;6.63;;
44536;SDS011;30245;51.966;6.292;2023-04-24T03:14:13;10.40;;;8.37;;
44536;SDS011;30245;51.966;6.292;2023-04-24T03:16:39;8.47;;;7.70;;
44536;SDS011;30245;51.966;6.292;2023-04-24T03:19:04;9.20;;;8.07;;
44536;SDS011;30245;51.966;6.292;2023-04-24T03:21:30;11.37;;;9.07;;
44536;SDS011;30245;51.966;6.292;2023-04-24T03:23:56;11.67;;;10.20;;
44536;SDS011;30245;51.966;6.292;2023-04-24T03:26:21;13.13;;;11.13;;
44536;SDS011;30245;51.966;6.292;2023-04-24T03:28:47;13.47;;;11.30;;
44536;SDS011;30245;51.966;6.292;2023-04-24T03:31:12;13.13;;;11.47;;
44536;SDS011;30245;51.966;6.292;2023-04-24T03:33:38;13.00;;;11.70;;
44536;SDS011;30245;51.966;6.292;2023-04-24T03:36:03;13.70;;;12.30;;
44536;SDS011;30245;51.966;6.292;2023-04-24T03:38:30;14.67;;;13.10;;
44536;SDS011;30245;51.966;6.292;2023-04-24T03:40:55;17.87;;;14.70;;
44536;SDS011;30245;51.966;6.292;2023-04-24T03:43:21;19.20;;;13.53;;
44536;SDS011;30245;51.966;6.292;2023-04-24T03:45:46;16.43;;;14.63;;
44536;SDS011;30245;51.966;6.292;2023-04-24T03:48:12;17.90;;;15.80;;
44536;SDS011;30245;51.966;6.292;2023-04-24T03:50:37;21.53;;;15.23;;
44536;SDS011;30245;51.966;6.292;2023-04-24T03:53:03;20.03;;;16.10;;
44536;SDS011;30245;51.966;6.292;2023-04-24T03:55:28;17.07;;;15.17;;
44536;SDS011;30245;51.966;6.292;2023-04-24T03:57:54;19.20;;;15.63;;
44536;SDS011;30245;51.966;6.292;2023-04-24T04:00:20;17.20;;;14.77;;
44536;SDS011;30245;51.966;6.292;2023-04-24T04:02:46;21.83;;;18.40;;
44536;SDS011;30245;51.966;6.292;2023-04-24T04:05:11;20.90;;;16.63;;
44536;SDS011;30245;51.966;6.292;2023-04-24T04:07:38;21.77;;;14.93;;
44536;SDS011;30245;51.966;6.292;2023-04-24T04:10:04;19.83;;;16.13;;
44536;SDS011;30245;51.966;6.292;2023-04-24T04:12:31;15.47;;;12.70;;
44536;SDS011;30245;51.966;6.292;2023-04-24T04:14:57;16.10;;;14.10;;
44536;SDS011;30245;51.966;6.292;2023-04-24T04:17:23;16.53;;;14.23;;
44536;SDS011;30245;51.966;6.292;2023-04-24T04:19:48;15.20;;;13.17;;
44536;SDS011;30245;51.966;6.292;2023-04-24T04:22:14;16.90;;;14.47;;
44536;SDS011;30245;51.966;6.292;2023-04-24T04:24:39;14.57;;;12.80;;
44536;SDS011;30245;51.966;6.292;2023-04-24T04:27:05;20.83;;;15.97;;
44536;SDS011;30245;51.966;6.292;2023-04-24T04:29:31;19.53;;;16.30;;
44536;SDS011;30245;51.966;6.292;2023-04-24T04:31:57;18.47;;;14.17;;
44536;SDS011;30245;51.966;6.292;2023-04-24T04:34:23;19.93;;;16.00;;
44536;SDS011;30245;51.966;6.292;2023-04-24T04:36:49;18.83;;;15.30;;
44536;SDS011;30245;51.966;6.292;2023-04-24T04:39:15;18.60;;;15.00;;
44536;SDS011;30245;51.966;6.292;2023-04-24T04:41:41;18.10;;;14.67;;
44536;SDS011;30245;51.966;6.292;2023-04-24T04:44:07;19.40;;;14.63;;
44536;SDS011;30245;51.966;6.292;2023-04-24T04:46:33;19.10;;;15.30;;
44536;SDS011;30245;51.966;6.292;2023-04-24T04:49:00;16.80;;;13.97;;
44536;SDS011;30245;51.966;6.292;2023-04-24T04:51:26;16.97;;;14.60;;
44536;SDS011;30245;51.966;6.292;2023-04-24T04:53:52;18.73;;;15.73;;
44536;SDS011;30245;51.966;6.292;2023-04-24T04:56:18;17.33;;;13.90;;
44536;SDS011;30245;51.966;6.292;2023-04-24T04:58:43;12.90;;;11.60;;
44536;SDS011;30245;51.966;6.292;2023-04-24T05:01:09;16.87;;;14.57;;
44536;SDS011;30245;51.966;6.292;2023-04-24T05:03:35;15.87;;;11.40;;
44536;SDS011;30245;51.966;6.292;2023-04-24T05:06:01;16.73;;;12.23;;
44536;SDS011;30245;51.966;6.292;2023-04-24T05:08:27;18.90;;;14.07;;
44536;SDS011;30245;51.966;6.292;2023-04-24T05:10:53;15.93;;;14.23;;
44536;SDS011;30245;51.966;6.292;2023-04-24T05:13:19;15.40;;;13.27;;
44536;SDS011;30245;51.966;6.292;2023-04-24T05:15:45;12.70;;;11.30;;
44536;SDS011;30245;51.966;6.292;2023-04-24T05:18:11;15.03;;;11.83;;
44536;SDS011;30245;51.966;6.292;2023-04-24T05:20:36;19.40;;;13.37;;
44536;SDS011;30245;51.966;6.292;2023-04-24T05:23:02;19.83;;;13.70;;
44536;SDS011;30245;51.966;6.292;2023-04-24T05:25:27;17.47;;;13.67;;
44536;SDS011;30245;51.966;6.292;2023-04-24T05:27:53;15.37;;;11.30;;
44536;SDS011;30245;51.966;6.292;2023-04-24T05:30:19;11.67;;;10.47;;
44536;SDS011;30245;51.966;6.292;2023-04-24T05:32:45;15.30;;;10.70;;
44536;SDS011;30245;51.966;6.292;2023-04-24T05:35:10;12.90;;;11.53;;
44536;SDS011;30245;51.966;6.292;2023-04-24T05:37:36;17.67;;;11.43;;
44536;SDS011;30245;51.966;6.292;2023-04-24T05:40:02;13.87;;;11.07;;
44536;SDS011;30245;51.966;6.292;2023-04-24T05:42:30;17.25;;;11.27;;
44536;SDS011;30245;51.966;6.292;2023-04-24T05:44:56;16.87;;;9.53;;
44536;SDS011;30245;51.966;6.292;2023-04-24T05:47:21;12.07;;;8.93;;
44536;SDS011;30245;51.966;6.292;2023-04-24T05:49:47;9.30;;;8.33;;
44536;SDS011;30245;51.966;6.292;2023-04-24T05:52:13;10.97;;;9.87;;
44536;SDS011;30245;51.966;6.292;2023-04-24T05:54:38;13.37;;;9.37;;
44536;SDS011;30245;51.966;6.292;2023-04-24T05:57:04;9.80;;;7.73;;
44536;SDS011;30245;51.966;6.292;2023-04-24T05:59:33;11.63;;;8.05;;
44536;SDS011;30245;51.966;6.292;2023-04-24T06:02:00;11.07;;;8.37;;
44536;SDS011;30245;51.966;6.292;2023-04-24T06:04:25;8.70;;;7.70;;
44536;SDS011;30245;51.966;6.292;2023-04-24T06:06:51;12.17;;;7.33;;
44536;SDS011;30245;51.966;6.292;2023-04-24T06:09:20;10.00;;;7.50;;
44536;SDS011;30245;51.966;6.292;2023-04-24T06:11:47;10.20;;;6.83;;
44536;SDS011;30245;51.966;6.292;2023-04-24T06:14:12;8.80;;;7.90;;
44536;SDS011;30245;51.966;6.292;2023-04-24T06:16:38;8.97;;;7.10;;
44536;SDS011;30245;51.966;6.292;2023-04-24T06:19:05;7.03;;;6.43;;
44536;SDS011;30245;51.966;6.292;2023-04-24T06:21:30;8.27;;;7.43;;
44536;SDS011;30245;51.966;6.292;2023-04-24T06:23:56;8.47;;;7.67;;
44536;SDS011;30245;51.966;6.292;2023-04-24T06:26:23;9.83;;;6.27;;
44536;SDS011;30245;51.966;6.292;2023-04-24T06:28:50;6.03;;;5.20;;
44536;SDS011;30245;51.966;6.292;2023-04-24T06:31:16;5.80;;;5.20;;
44536;SDS011;30245;51.966;6.292;2023-04-24T06:33:42;4.90;;;4.50;;
44536;SDS011;30245;51.966;6.292;2023-04-24T06:36:08;6.70;;;4.83;;
44536;SDS011;30245;51.966;6.292;2023-04-24T06:38:33;5.80;;;4.90;;
44536;SDS011;30245;51.966;6.292;2023-04-24T06:40:59;4.73;;;3.57;;
44536;SDS011;30245;51.966;6.292;2023-04-24T06:43:25;4.23;;;2.90;;
44536;SDS011;30245;51.966;6.292;2023-04-24T06:45:50;3.63;;;3.37;;
44536;SDS011;30245;51.966;6.292;2023-04-24T06:48:16;6.10;;;4.17;;
44536;SDS011;30245;51.966;6.292;2023-04-24T06:50:41;5.27;;;4.77;;
44536;SDS011;30245;51.966;6.292;2023-04-24T06:53:07;4.70;;;4.00;;
44536;SDS011;30245;51.966;6.292;2023-04-24T06:55:35;5.10;;;3.92;;
44536;SDS011;30245;51.966;6.292;2023-04-24T06:58:01;3.37;;;3.07;;
44536;SDS011;30245;51.966;6.292;2023-04-24T07:00:27;5.53;;;3.50;;
44536;SDS011;30245;51.966;6.292;2023-04-24T07:02:52;4.33;;;3.80;;
44536;SDS011;30245;51.966;6.292;2023-04-24T07:05:18;7.73;;;4.53;;
44536;SDS011;30245;51.966;6.292;2023-04-24T07:07:47;4.78;;;4.38;;
44536;SDS011;30245;51.966;6.292;2023-04-24T07:10:14;4.13;;;3.53;;
44536;SDS011;30245;51.966;6.292;2023-04-24T07:12:39;3.97;;;3.67;;
44536;SDS011;30245;51.966;6.292;2023-04-24T07:15:05;5.40;;;4.37;;
44536;SDS011;30245;51.966;6.292;2023-04-24T07:17:32;3.87;;;3.57;;
44536;SDS011;30245;51.966;6.292;2023-04-24T07:19:58;6.50;;;4.80;;
44536;SDS011;30245;51.966;6.292;2023-04-24T07:22:24;3.90;;;3.53;;
44536;SDS011;30245;51.966;6.292;2023-04-24T07:24:50;4.07;;;2.97;;
44536;SDS011;30245;51.966;6.292;2023-04-24T07:27:15;2.77;;;2.53;;
44536;SDS011;30245;51.966;6.292;2023-04-24T07:29:41;2.10;;;1.70;;
44536;SDS011;30245;51.966;6.292;2023-04-24T07:32:06;3.00;;;2.10;;
44536;SDS011;30245;51.966;6.292;2023-04-24T07:34:32;2.07;;;1.67;;
44536;SDS011;30245;51.966;6.292;2023-04-24T07:36:58;2.20;;;2.00;;
44536;SDS011;30245;51.966;6.292;2023-04-24T07:39:24;3.13;;;1.73;;
44536;SDS011;30245;51.966;6.292;2023-04-24T07:41:51;2.03;;;1.30;;
44536;SDS011;30245;51.966;6.292;2023-04-24T07:44:16;2.00;;;1.70;;
44536;SDS011;30245;51.966;6.292;2023-04-24T07:46:42;2.63;;;1.80;;
44536;SDS011;30245;51.966;6.292;2023-04-24T07:49:08;2.77;;;2.00;;
44536;SDS011;30245;51.966;6.292;2023-04-24T07:51:33;2.63;;;1.67;;
44536;SDS011;30245;51.966;6.292;2023-04-24T07:54:03;2.90;;;2.57;;
44536;SDS011;30245;51.966;6.292;2023-04-24T07:56:30;2.93;;;2.10;;
44536;SDS011;30245;51.966;6.292;2023-04-24T07:58:56;1.90;;;1.40;;
44536;SDS011;30245;51.966;6.292;2023-04-24T08:01:22;4.70;;;2.03;;
44536;SDS011;30245;51.966;6.292;2023-04-24T08:03:47;2.67;;;1.67;;
44536;SDS011;30245;51.966;6.292;2023-04-24T08:06:13;3.57;;;1.67;;
44536;SDS011;30245;51.966;6.292;2023-04-24T08:08:39;1.70;;;1.30;;
44536;SDS011;30245;51.966;6.292;2023-04-24T08:11:04;2.07;;;1.27;;
44536;SDS011;30245;51.966;6.292;2023-04-24T08:13:30;3.20;;;1.33;;
44536;SDS011;30245;51.966;6.292;2023-04-24T08:15:56;2.63;;;0.60;;
44536;SDS011;30245;51.966;6.292;2023-04-24T08:18:22;2.93;;;0.70;;
44536;SDS011;30245;51.966;6.292;2023-04-24T08:20:47;0.80;;;0.40;;
44536;SDS011;30245;51.966;6.292;2023-04-24T08:23:13;0.70;;;0.50;;
44536;SDS011;30245;51.966;6.292;2023-04-24T08:25:39;1.00;;;0.60;;
44536;SDS011;30245;51.966;6.292;2023-04-24T08:28:05;0.80;;;0.50;;
44536;SDS011;30245;51.966;6.292;2023-04-24T08:30:31;0.93;;;0.50;;
44536;SDS011;30245;51.966;6.292;2023-04-24T08:32:57;1.80;;;0.20;;
44536;SDS011;30245;51.966;6.292;2023-04-24T08:35:23;0.70;;;0.40;;
44536;SDS011;30245;51.966;6.292;2023-04-24T08:37:48;1.00;;;0.30;;
44536;SDS011;30245;51.966;6.292;2023-04-24T08:40:15;1.23;;;0.60;;
44536;SDS011;30245;51.966;6.292;2023-04-24T08:42:42;2.10;;;0.80;;
44536;SDS011;30245;51.966;6.292;2023-04-24T08:45:09;2.53;;;0.90;;
44536;SDS011;30245;51.966;6.292;2023-04-24T08:47:39;2.10;;;1.37;;
44536;SDS011;30245;51.966;6.292;2023-04-24T08:50:06;4.83;;;2.50;;
44536;SDS011;30245;51.966;6.292;2023-04-24T08:52:33;5.07;;;2.50;;
44536;SDS011;30245;51.966;6.292;2023-04-24T08:55:02;3.23;;;1.93;;
44536;SDS011;30245;51.966;6.292;2023-04-24T08:57:28;2.20;;;1.40;;
44536;SDS011;30245;51.966;6.292;2023-04-24T08:59:56;4.17;;;2.20;;
44536;SDS011;30245;51.966;6.292;2023-04-24T09:02:23;2.00;;;1.53;;
44536;SDS011;30245;51.966;6.292;2023-04-24T09:04:49;2.40;;;2.17;;
44536;SDS011;30245;51.966;6.292;2023-04-24T09:07:16;5.37;;;2.13;;
44536;SDS011;30245;51.966;6.292;2023-04-24T09:09:43;3.73;;;2.60;;
44536;SDS011;30245;51.966;6.292;2023-04-24T09:12:09;5.57;;;3.33;;
44536;SDS011;30245;51.966;6.292;2023-04-24T09:14:35;3.33;;;2.20;;
44536;SDS011;30245;51.966;6.292;2023-04-24T09:17:04;3.60;;;2.87;;
44536;SDS011;30245;51.966;6.292;2023-04-24T09:19:31;4.60;;;2.37;;
44536;SDS011;30245;51.966;6.292;2023-04-24T09:21:56;4.13;;;2.57;;
44536;SDS011;30245;51.966;6.292;2023-04-24T09:24:22;6.83;;;2.10;;
44536;SDS011;30245;51.966;6.292;2023-04-24T09:26:48;3.80;;;2.63;;
44536;SDS011;30245;51.966;6.292;2023-04-24T09:29:22;4.67;;;2.00;;
44536;SDS011;30245;51.966;6.292;2023-04-24T09:31:47;2.90;;;2.03;;
44536;SDS011;30245;51.966;6.292;2023-04-24T09:34:13;4.27;;;2.07;;
44536;SDS011;30245;51.966;6.292;2023-04-24T09:36:39;2.50;;;1.60;;
44536;SDS011;30245;51.966;6.292;2023-04-24T09:39:09;2.53;;;1.63;;
44536;SDS011;30245;51.966;6.292;2023-04-24T09:44:13;3.83;;;0.70;;
44536;SDS011;30245;51.966;6.292;2023-04-24T09:46:41;1.63;;;0.60;;
44536;SDS011;30245;51.966;6.292;2023-04-24T09:49:07;2.93;;;1.03;;
44536;SDS011;30245;51.966;6.292;2023-04-24T09:51:35;2.55;;;0.80;;
44536;SDS011;30245;51.966;6.292;2023-04-24T09:54:03;3.23;;;0.87;;
44536;SDS011;30245;51.966;6.292;2023-04-24T09:56:50;6.32;;;1.48;;
44536;SDS011;30245;51.966;6.292;2023-04-24T09:59:17;6.27;;;1.47;;
44536;SDS011;30245;51.966;6.292;2023-04-24T10:01:44;4.30;;;1.23;;
44536;SDS011;30245;51.966;6.292;2023-04-24T10:04:19;5.57;;;1.17;;
44536;SDS011;30245;51.966;6.292;2023-04-24T10:06:50;4.83;;;1.47;;
44536;SDS011;30245;51.966;6.292;2023-04-24T10:09:18;5.27;;;1.30;;
44536;SDS011;30245;51.966;6.292;2023-04-24T10:11:46;5.50;;;0.80;;
44536;SDS011;30245;51.966;6.292;2023-04-24T10:14:17;6.70;;;1.17;;
44536;SDS011;30245;51.966;6.292;2023-04-24T10:16:45;3.07;;;1.30;;
44536;SDS011;30245;51.966;6.292;2023-04-24T10:19:12;6.37;;;1.00;;
44536;SDS011;30245;51.966;6.292;2023-04-24T10:21:43;6.57;;;1.20;;
44536;SDS011;30245;51.966;6.292;2023-04-24T10:24:13;5.33;;;1.47;;
44536;SDS011;30245;51.966;6.292;2023-04-24T10:26:40;5.93;;;0.90;;
44536;SDS011;30245;51.966;6.292;2023-04-24T10:29:06;5.33;;;0.60;;
44536;SDS011;30245;51.966;6.292;2023-04-24T10:31:34;7.07;;;1.83;;
44536;SDS011;30245;51.966;6.292;2023-04-24T10:34:01;3.60;;;1.27;;
44536;SDS011;30245;51.966;6.292;2023-04-24T10:36:27;2.43;;;0.50;;
44536;SDS011;30245;51.966;6.292;2023-04-24T10:38:57;3.97;;;0.80;;
44536;SDS011;30245;51.966;6.292;2023-04-24T10:44:10;4.63;;;0.90;;
44536;SDS011;30245;51.966;6.292;2023-04-24T10:46:37;5.67;;;1.40;;
44536;SDS011;30245;51.966;6.292;2023-04-24T10:49:05;10.93;;;1.37;;
44536;SDS011;30245;51.966;6.292;2023-04-24T10:51:48;5.25;;;0.88;;
44536;SDS011;30245;51.966;6.292;2023-04-24T10:56:52;5.20;;;1.20;;
44536;SDS011;30245;51.966;6.292;2023-04-24T10:59:38;7.17;;;1.07;;
44536;SDS011;30245;51.966;6.292;2023-04-24T11:02:04;2.03;;;1.27;;
44536;SDS011;30245;51.966;6.292;2023-04-24T11:04:33;4.63;;;1.30;;
44536;SDS011;30245;51.966;6.292;2023-04-24T11:07:00;5.57;;;1.40;;
44536;SDS011;30245;51.966;6.292;2023-04-24T11:09:26;5.27;;;1.00;;
44536;SDS011;30245;51.966;6.292;2023-04-24T11:12:02;6.17;;;0.70;;
44536;SDS011;30245;51.966;6.292;2023-04-24T11:14:31;4.22;;;0.60;;
44536;SDS011;30245;51.966;6.292;2023-04-24T11:17:32;5.20;;;0.60;;
44536;SDS011;30245;51.966;6.292;2023-04-24T11:22:41;6.93;;;0.97;;
44536;SDS011;30245;51.966;6.292;2023-04-24T11:25:07;3.27;;;0.40;;
44536;SDS011;30245;51.966;6.292;2023-04-24T11:27:41;3.33;;;1.03;;
44536;SDS011;30245;51.966;6.292;2023-04-24T11:30:08;8.77;;;0.70;;
44536;SDS011;30245;51.966;6.292;2023-04-24T11:32:36;4.67;;;0.70;;
44536;SDS011;30245;51.966;6.292;2023-04-24T11:37:51;6.43;;;0.70;;
44536;SDS011;30245;51.966;6.292;2023-04-24T11:40:18;6.50;;;0.67;;
44536;SDS011;30245;51.966;6.292;2023-04-24T11:42:46;3.90;;;0.67;;
44536;SDS011;30245;51.966;6.292;2023-04-24T11:45:22;8.67;;;0.67;;
44536;SDS011;30245;51.966;6.292;2023-04-24T11:47:50;2.50;;;0.60;;
44536;SDS011;30245;51.966;6.292;2023-04-24T11:50:17;1.27;;;0.30;;
44536;SDS011;30245;51.966;6.292;2023-04-24T11:52:44;2.13;;;0.30;;
44536;SDS011;30245;51.966;6.292;2023-04-24T11:57:39;3.03;;;0.40;;
44536;SDS011;30245;51.966;6.292;2023-04-24T12:00:14;1.40;;;0.40;;
44536;SDS011;30245;51.966;6.292;2023-04-24T12:02:41;1.60;;;0.50;;
44536;SDS011;30245;51.966;6.292;2023-04-24T12:05:07;2.20;;;0.20;;
44536;SDS011;30245;51.966;6.292;2023-04-24T12:07:39;1.57;;;0.17;;
44536;SDS011;30245;51.966;6.292;2023-04-24T12:10:09;0.40;;;0.10;;
44536;SDS011;30245;51.966;6.292;2023-04-24T12:12:35;2.50;;;0.20;;
44536;SDS011;30245;51.966;6.292;2023-04-24T12:15:01;1.17;;;0.20;;
44536;SDS011;30245;51.966;6.292;2023-04-24T12:17:33;0.83;;;0.20;;
44536;SDS011;30245;51.966;6.292;2023-04-24T12:22:49;0.47;;;0.10;;
44536;SDS011;30245;51.966;6.292;2023-04-24T12:25:20;1.13;;;0.20;;
44536;SDS011;30245;51.966;6.292;2023-04-24T12:30:28;1.63;;;0.10;;
44536;SDS011;30245;51.966;6.292;2023-04-24T12:32:57;2.37;;;0.20;;
44536;SDS011;30245;51.966;6.292;2023-04-24T12:35:24;0.30;;;0.10;;
44536;SDS011;30245;51.966;6.292;2023-04-24T12:37:52;0.60;;;0.17;;
44536;SDS011;30245;51.966;6.292;2023-04-24T12:40:18;3.60;;;0.40;;
44536;SDS011;30245;51.966;6.292;2023-04-24T12:42:45;2.73;;;0.10;;
44536;SDS011;30245;51.966;6.292;2023-04-24T12:45:16;1.13;;;0.10;;
44536;SDS011;30245;51.966;6.292;2023-04-24T12:47:43;0.90;;;0.10;;
44536;SDS011;30245;51.966;6.292;2023-04-24T12:50:10;3.80;;;0.20;;
44536;SDS011;30245;51.966;6.292;2023-04-24T12:52:37;1.20;;;0.10;;
44536;SDS011;30245;51.966;6.292;2023-04-24T12:55:04;0.50;;;0.10;;
44536;SDS011;30245;51.966;6.292;2023-04-24T12:57:32;1.47;;;0.20;;
44536;SDS011;30245;51.966;6.292;2023-04-24T12:59:59;7.70;;;0.67;;
44536;SDS011;30245;51.966;6.292;2023-04-24T13:02:26;2.40;;;0.10;;
44536;SDS011;30245;51.966;6.292;2023-04-24T13:04:53;0.50;;;0.10;;
44536;SDS011;30245;51.966;6.292;2023-04-24T13:07:19;2.10;;;0.10;;
44536;SDS011;30245;51.966;6.292;2023-04-24T13:09:44;0.67;;;0.20;;
44536;SDS011;30245;51.966;6.292;2023-04-24T13:12:11;0.10;;;0.10;;
44536;SDS011;30245;51.966;6.292;2023-04-24T13:14:37;0.40;;;0.10;;
44536;SDS011;30245;51.966;6.292;2023-04-24T13:17:03;2.63;;;0.10;;
44536;SDS011;30245;51.966;6.292;2023-04-24T13:19:29;2.27;;;0.30;;
44536;SDS011;30245;51.966;6.292;2023-04-24T13:22:01;3.17;;;0.37;;
44536;SDS011;30245;51.966;6.292;2023-04-24T13:24:26;2.30;;;0.30;;
44536;SDS011;30245;51.966;6.292;2023-04-24T13:26:52;1.93;;;0.30;;
44536;SDS011;30245;51.966;6.292;2023-04-24T13:29:18;1.40;;;0.23;;
44536;SDS011;30245;51.966;6.292;2023-04-24T13:31:45;3.93;;;0.20;;
44536;SDS011;30245;51.966;6.292;2023-04-24T13:34:12;1.77;;;0.47;;
44536;SDS011;30245;51.966;6.292;2023-04-24T13:36:38;4.27;;;0.37;;
44536;SDS011;30245;51.966;6.292;2023-04-24T13:39:04;0.40;;;0.10;;
44536;SDS011;30245;51.966;6.292;2023-04-24T13:41:32;0.80;;;0.10;;
44536;SDS011;30245;51.966;6.292;2023-04-24T13:43:58;2.37;;;0.20;;
44536;SDS011;30245;51.966;6.292;2023-04-24T13:46:24;1.73;;;0.47;;
44536;SDS011;30245;51.966;6.292;2023-04-24T13:48:49;0.97;;;0.10;;
44536;SDS011;30245;51.966;6.292;2023-04-24T13:51:15;3.27;;;0.30;;
44536;SDS011;30245;51.966;6.292;2023-04-24T13:53:40;2.93;;;0.77;;
44536;SDS011;30245;51.966;6.292;2023-04-24T13:56:06;2.33;;;0.10;;
44536;SDS011;30245;51.966;6.292;2023-04-24T13:58:32;0.87;;;0.20;;
44536;SDS011;30245;51.966;6.292;2023-04-24T14:00:58;3.03;;;0.20;;
44536;SDS011;30245;51.966;6.292;2023-04-24T14:03:23;2.00;;;0.20;;
44536;SDS011;30245;51.966;6.292;2023-04-24T14:05:49;1.77;;;0.20;;
44536;SDS011;30245;51.966;6.292;2023-04-24T14:08:15;1.80;;;0.20;;
44536;SDS011;30245;51.966;6.292;2023-04-24T14:10:40;2.00;;;0.30;;
44536;SDS011;30245;51.966;6.292;2023-04-24T14:13:07;2.73;;;0.40;;
44536;SDS011;30245;51.966;6.292;2023-04-24T14:15:33;2.33;;;0.53;;
44536;SDS011;30245;51.966;6.292;2023-04-24T14:18:00;2.97;;;0.50;;
44536;SDS011;30245;51.966;6.292;2023-04-24T14:20:26;1.27;;;0.30;;
44536;SDS011;30245;51.966;6.292;2023-04-24T14:22:52;2.37;;;0.20;;
44536;SDS011;30245;51.966;6.292;2023-04-24T14:25:18;1.20;;;0.20;;
44536;SDS011;30245;51.966;6.292;2023-04-24T14:27:44;2.93;;;0.40;;
44536;SDS011;30245;51.966;6.292;2023-04-24T14:30:10;3.40;;;0.30;;
44536;SDS011;30245;51.966;6.292;2023-04-24T14:32:37;4.20;;;0.43;;
44536;SDS011;30245;51.966;6.292;2023-04-24T14:35:04;2.57;;;0.33;;
44536;SDS011;30245;51.966;6.292;2023-04-24T14:37:31;5.70;;;0.60;;
44536;SDS011;30245;51.966;6.292;2023-04-24T14:39:56;2.07;;;0.30;;
44536;SDS011;30245;51.966;6.292;2023-04-24T14:42:22;1.83;;;0.23;;
44536;SDS011;30245;51.966;6.292;2023-04-24T14:44:47;7.30;;;1.23;;
44536;SDS011;30245;51.966;6.292;2023-04-24T14:47:13;3.40;;;0.30;;
44536;SDS011;30245;51.966;6.292;2023-04-24T14:49:39;2.30;;;0.80;;
44536;SDS011;30245;51.966;6.292;2023-04-24T14:52:04;6.25;;;1.20;;
44536;SDS011;30245;51.966;6.292;2023-04-24T14:54:30;3.47;;;0.63;;
44536;SDS011;30245;51.966;6.292;2023-04-24T14:56:55;2.50;;;0.88;;
44536;SDS011;30245;51.966;6.292;2023-04-24T14:59:26;1.42;;;0.35;;
44536;SDS011;30245;51.966;6.292;2023-04-24T15:01:52;2.33;;;0.98;;
44536;SDS011;30245;51.966;6.292;2023-04-24T15:04:22;6.07;;;0.73;;